createdAt,value
2024-02-13T00:00:18.648Z,537.00
2024-02-13T00:01:18.759Z,536.00
2024-02-13T00:02:18.765Z,535.00
2024-02-13T00:03:18.821Z,534.00
2024-02-13T00:04:18.872Z,531.00
2024-02-13T00:05:18.956Z,534.00
2024-02-13T00:06:18.927Z,535.00
2024-02-13T00:07:19.012Z,534.00
2024-02-13T00:08:19.171Z,533.00
2024-02-13T00:09:19.199Z,531.00
2024-02-13T00:10:19.156Z,529.00
2024-02-13T00:11:19.204Z,526.00
2024-02-13T00:12:19.228Z,528.00
2024-02-13T00:13:19.262Z,527.00
2024-02-13T00:14:19.340Z,528.00
2024-02-13T00:15:19.408Z,526.00
2024-02-13T00:16:19.761Z,526.00
2024-02-13T00:17:19.541Z,528.00
2024-02-13T00:18:19.630Z,528.00
2024-02-13T00:19:19.657Z,528.00
2024-02-13T00:20:19.700Z,526.00
2024-02-13T00:21:19.731Z,524.00
2024-02-13T00:22:19.810Z,525.00
2024-02-13T00:23:19.906Z,527.00
2024-02-13T00:24:19.880Z,528.00
2024-02-13T00:25:19.984Z,529.00
2024-02-13T00:26:20.053Z,529.00
2024-02-13T00:27:20.066Z,529.00
2024-02-13T00:28:20.136Z,527.00
2024-02-13T00:29:20.279Z,530.00
2024-02-13T00:30:20.252Z,530.00
2024-02-13T00:31:20.290Z,531.00
2024-02-13T00:32:20.383Z,529.00
2024-02-13T00:33:20.606Z,529.00
2024-02-13T00:34:20.545Z,531.00
2024-02-13T00:35:20.515Z,531.00
2024-02-13T00:36:20.549Z,531.00
2024-02-13T00:37:20.653Z,533.00
2024-02-13T00:38:20.671Z,534.00
2024-02-13T00:39:20.706Z,532.00
2024-02-13T00:40:20.757Z,534.00
2024-02-13T00:41:20.806Z,535.00
2024-02-13T00:42:20.835Z,536.00
2024-02-13T00:43:20.863Z,538.00
2024-02-13T00:44:21.051Z,536.00
2024-02-13T00:45:20.977Z,535.00
2024-02-13T00:46:21.033Z,537.00
2024-02-13T00:47:21.139Z,537.00
2024-02-13T00:48:21.246Z,537.00
2024-02-13T00:49:21.302Z,535.00
2024-02-13T00:50:21.317Z,533.00
2024-02-13T00:51:21.293Z,531.00
2024-02-13T00:52:21.328Z,530.00
2024-02-13T00:53:21.411Z,528.00
2024-02-13T00:54:21.436Z,527.00
2024-02-13T00:55:21.474Z,526.00
2024-02-13T00:56:21.560Z,526.00
2024-02-13T00:57:21.618Z,527.00
2024-02-13T00:58:21.658Z,527.00
2024-02-13T00:59:21.836Z,529.00
2024-02-13T01:00:21.729Z,529.00
2024-02-13T01:01:21.788Z,529.00
2024-02-13T01:02:21.843Z,528.00
2024-02-13T01:03:21.889Z,531.00
2024-02-13T01:04:21.926Z,530.00
2024-02-13T01:05:21.971Z,531.00
2024-02-13T01:06:21.999Z,530.00
2024-02-13T01:07:22.016Z,531.00
2024-02-13T01:08:22.121Z,533.00
2024-02-13T01:09:22.130Z,532.00
2024-02-13T01:10:22.143Z,532.00
2024-02-13T01:11:22.224Z,532.00
2024-02-13T01:12:22.195Z,530.00
2024-02-13T01:13:22.239Z,530.00
2024-02-13T01:14:22.314Z,532.00
2024-02-13T01:15:22.356Z,532.00
2024-02-13T01:16:22.428Z,530.00
2024-02-13T01:17:22.625Z,529.00
2024-02-13T01:18:22.750Z,531.00
2024-02-13T01:19:22.758Z,530.00
2024-02-13T01:20:22.707Z,530.00
2024-02-13T01:21:22.680Z,525.00
2024-02-13T01:22:22.789Z,521.00
2024-02-13T01:23:22.858Z,523.00
2024-02-13T01:24:22.841Z,521.00
2024-02-13T01:25:22.900Z,524.00
2024-02-13T01:26:23.008Z,526.00
2024-02-13T01:27:22.960Z,526.00
2024-02-13T01:28:23.050Z,526.00
2024-02-13T01:29:23.155Z,527.00
2024-02-13T01:30:23.117Z,530.00
2024-02-13T01:31:23.179Z,530.00
2024-02-13T01:32:23.290Z,530.00
2024-02-13T01:33:23.380Z,530.00
2024-02-13T01:34:23.367Z,530.00
2024-02-13T01:35:23.364Z,530.00
2024-02-13T01:36:23.361Z,528.00
2024-02-13T01:37:23.483Z,528.00
2024-02-13T01:38:23.498Z,528.00
2024-02-13T01:39:23.536Z,527.00
2024-02-13T01:40:23.520Z,526.00
2024-02-13T01:41:23.607Z,525.00
2024-02-13T01:42:23.549Z,525.00
2024-02-13T01:43:23.574Z,524.00
2024-02-13T01:44:23.663Z,524.00
2024-02-13T01:45:23.605Z,523.00
2024-02-13T01:46:23.640Z,524.00
2024-02-13T01:47:23.721Z,526.00
2024-02-13T01:48:23.908Z,526.00
2024-02-13T01:49:23.836Z,524.00
2024-02-13T01:50:23.862Z,524.00
2024-02-13T01:51:23.914Z,525.00
2024-02-13T01:52:23.982Z,525.00
2024-02-13T01:53:24.039Z,527.00
2024-02-13T01:54:24.063Z,528.00
2024-02-13T01:55:24.137Z,530.00
2024-02-13T01:56:24.170Z,531.00
2024-02-13T01:57:24.223Z,531.00
2024-02-13T01:58:24.276Z,531.00
2024-02-13T01:59:24.396Z,531.00
2024-02-13T02:00:24.402Z,530.00
2024-02-13T02:01:24.401Z,529.00
2024-02-13T02:02:24.526Z,528.00
2024-02-13T02:03:24.544Z,529.00
2024-02-13T02:04:24.581Z,527.00
2024-02-13T02:05:24.638Z,528.00
2024-02-13T02:06:46.706Z,527.00
2024-02-13T02:07:24.623Z,530.00
2024-02-13T02:08:24.645Z,530.00
2024-02-13T02:09:24.645Z,530.00
2024-02-13T02:10:26.166Z,531.00
2024-02-13T02:11:26.397Z,532.00
2024-02-13T02:12:24.628Z,532.00
2024-02-13T02:13:24.637Z,532.00
2024-02-13T02:14:24.714Z,531.00
2024-02-13T02:15:24.643Z,530.00
2024-02-13T02:16:24.633Z,528.00
2024-02-13T02:17:24.683Z,528.00
2024-02-13T02:18:24.673Z,528.00
2024-02-13T02:19:24.698Z,528.00
2024-02-13T02:20:24.678Z,528.00
2024-02-13T02:21:24.688Z,526.00
2024-02-13T02:22:24.750Z,528.00
2024-02-13T02:23:24.793Z,527.00
2024-02-13T02:24:24.856Z,524.00
2024-02-13T02:25:24.909Z,525.00
2024-02-13T02:26:25.019Z,528.00
2024-02-13T02:27:25.056Z,526.00
2024-02-13T02:28:25.085Z,527.00
2024-02-13T02:29:25.172Z,526.00
2024-02-13T02:30:25.206Z,527.00
2024-02-13T02:31:25.275Z,526.00
2024-02-13T02:32:25.446Z,524.00
2024-02-13T02:33:25.493Z,527.00
2024-02-13T02:34:25.479Z,526.00
2024-02-13T02:35:25.543Z,528.00
2024-02-13T02:36:25.584Z,528.00
2024-02-13T02:37:25.647Z,528.00
2024-02-13T02:38:25.758Z,528.00
2024-02-13T02:39:25.799Z,528.00
2024-02-13T02:40:25.864Z,529.00
2024-02-13T02:41:25.948Z,530.00
2024-02-13T02:42:25.993Z,530.00
2024-02-13T02:43:26.075Z,530.00
2024-02-13T02:44:26.144Z,529.00
2024-02-13T02:45:26.188Z,531.00
2024-02-13T02:46:26.277Z,529.00
2024-02-13T02:47:26.398Z,530.00
2024-02-13T02:48:26.469Z,530.00
2024-02-13T02:49:26.505Z,528.00
2024-02-13T02:50:26.633Z,529.00
2024-02-13T02:51:26.565Z,527.00
2024-02-13T02:52:26.632Z,527.00
2024-02-13T02:53:26.738Z,528.00
2024-02-13T02:54:26.739Z,530.00
2024-02-13T02:55:26.811Z,531.00
2024-02-13T02:56:26.881Z,530.00
2024-02-13T02:57:26.932Z,529.00
2024-02-13T02:58:27.004Z,531.00
2024-02-13T02:59:27.111Z,533.00
2024-02-13T03:00:27.128Z,531.00
2024-02-13T03:01:27.181Z,532.00
2024-02-13T03:02:27.262Z,530.00
2024-02-13T03:03:27.362Z,526.00
2024-02-13T03:04:27.393Z,526.00
2024-02-13T03:05:27.548Z,528.00
2024-02-13T03:06:27.647Z,528.00
2024-02-13T03:07:27.538Z,527.00
2024-02-13T03:08:27.635Z,527.00
2024-02-13T03:09:27.696Z,529.00
2024-02-13T03:10:27.742Z,530.00
2024-02-13T03:11:27.806Z,529.00
2024-02-13T03:12:27.884Z,529.00
2024-02-13T03:13:27.947Z,529.00
2024-02-13T03:14:28.003Z,527.00
2024-02-13T03:15:28.055Z,528.00
2024-02-13T03:16:28.114Z,527.00
2024-02-13T03:17:28.293Z,527.00
2024-02-13T03:18:28.289Z,528.00
2024-02-13T03:19:28.340Z,528.00
2024-02-13T03:20:28.465Z,527.00
2024-02-13T03:21:28.408Z,527.00
2024-02-13T03:22:28.470Z,527.00
2024-02-13T03:23:28.550Z,527.00
2024-02-13T03:24:28.623Z,527.00
2024-02-13T03:25:28.653Z,530.00
2024-02-13T03:26:28.750Z,531.00
2024-02-13T03:27:28.793Z,531.00
2024-02-13T03:28:28.859Z,529.00
2024-02-13T03:29:28.985Z,531.00
2024-02-13T03:30:28.981Z,530.00
2024-02-13T03:31:29.065Z,529.00
2024-02-13T03:32:29.301Z,532.00
2024-02-13T03:33:29.289Z,533.00
2024-02-13T03:34:29.382Z,530.00
2024-02-13T03:35:29.375Z,530.00
2024-02-13T03:36:29.411Z,529.00
2024-02-13T03:37:29.466Z,528.00
2024-02-13T03:38:29.559Z,528.00
2024-02-13T03:39:29.606Z,531.00
2024-02-13T03:40:29.700Z,529.00
2024-02-13T03:41:29.728Z,527.00
2024-02-13T03:42:29.789Z,527.00
2024-02-13T03:43:29.851Z,528.00
2024-02-13T03:44:29.952Z,530.00
2024-02-13T03:45:29.974Z,530.00
2024-02-13T03:46:30.043Z,531.00
2024-02-13T03:47:30.167Z,533.00
2024-02-13T03:48:30.331Z,535.00
2024-02-13T03:49:30.259Z,535.00
2024-02-13T03:50:30.363Z,535.00
2024-02-13T03:51:30.310Z,533.00
2024-02-13T03:52:30.389Z,533.00
2024-02-13T03:53:30.435Z,535.00
2024-02-13T03:54:30.499Z,536.00
2024-02-13T03:55:30.572Z,538.00
2024-02-13T03:56:30.716Z,539.00
2024-02-13T03:57:30.723Z,537.00
2024-02-13T03:58:30.764Z,539.00
2024-02-13T03:59:30.958Z,540.00
2024-02-13T04:00:31.011Z,540.00
2024-02-13T04:01:30.973Z,541.00
2024-02-13T04:02:31.058Z,540.00
2024-02-13T04:03:31.096Z,541.00
2024-02-13T04:04:31.272Z,540.00
2024-02-13T04:05:31.443Z,537.00
2024-02-13T04:06:31.341Z,539.00
2024-02-13T04:07:31.369Z,539.00
2024-02-13T04:08:31.496Z,538.00
2024-02-13T04:09:31.509Z,535.00
2024-02-13T04:10:31.525Z,535.00
2024-02-13T04:11:31.692Z,536.00
2024-02-13T04:12:31.683Z,539.00
2024-02-13T04:13:31.715Z,539.00
2024-02-13T04:14:31.762Z,537.00
2024-02-13T04:15:31.825Z,536.00
2024-02-13T04:16:32.191Z,534.00
2024-02-13T04:17:32.074Z,535.00
2024-02-13T04:18:32.012Z,538.00
2024-02-13T04:19:32.051Z,537.00
2024-02-13T04:20:32.139Z,537.00
2024-02-13T04:21:32.143Z,535.00
2024-02-13T04:22:32.197Z,535.00
2024-02-13T04:23:32.291Z,537.00
2024-02-13T04:24:32.312Z,534.00
2024-02-13T04:25:32.365Z,535.00
2024-02-13T04:26:36.783Z,536.00
2024-02-13T04:27:32.428Z,535.00
2024-02-13T04:28:32.406Z,534.00
2024-02-13T04:29:32.446Z,536.00
2024-02-13T04:30:32.479Z,532.00
2024-02-13T04:31:32.449Z,533.00
2024-02-13T04:32:32.545Z,534.00
2024-02-13T04:33:32.498Z,536.00
2024-02-13T04:34:32.693Z,536.00
2024-02-13T04:35:32.437Z,537.00
2024-02-13T04:36:32.462Z,536.00
2024-02-13T04:37:32.466Z,536.00
2024-02-13T04:38:32.593Z,535.00
2024-02-13T04:39:32.569Z,537.00
2024-02-13T04:40:32.622Z,537.00
2024-02-13T04:41:32.709Z,535.00
2024-02-13T04:42:32.721Z,535.00
2024-02-13T04:43:32.733Z,537.00
2024-02-13T04:44:32.826Z,535.00
2024-02-13T04:45:32.780Z,535.00
2024-02-13T04:46:32.837Z,536.00
2024-02-13T04:47:32.973Z,535.00
2024-02-13T04:48:33.073Z,535.00
2024-02-13T04:49:40.437Z,526.00
2024-02-13T04:50:40.417Z,531.00
2024-02-13T04:51:40.425Z,532.00
2024-02-13T04:52:40.410Z,532.00
2024-02-13T04:53:40.443Z,530.00
2024-02-13T04:54:40.425Z,528.00
2024-02-13T04:55:40.436Z,525.00
2024-02-13T04:56:40.456Z,526.00
2024-02-13T04:57:40.421Z,527.00
2024-02-13T04:58:40.410Z,527.00
2024-02-13T04:59:40.457Z,527.00
2024-02-13T05:00:40.472Z,528.00
2024-02-13T05:01:40.445Z,529.00
2024-02-13T05:02:40.540Z,529.00
2024-02-13T05:03:40.440Z,530.00
2024-02-13T05:04:40.511Z,528.00
2024-02-13T05:05:40.528Z,526.00
2024-02-13T05:06:40.458Z,526.00
2024-02-13T05:07:40.449Z,524.00
2024-02-13T05:08:40.461Z,525.00
2024-02-13T05:09:40.438Z,526.00
2024-02-13T05:10:40.429Z,529.00
2024-02-13T05:11:40.445Z,529.00
2024-02-13T05:12:40.440Z,530.00
2024-02-13T05:13:40.457Z,531.00
2024-02-13T05:14:40.462Z,530.00
2024-02-13T05:15:40.428Z,531.00
2024-02-13T05:16:40.456Z,529.00
2024-02-13T05:17:40.498Z,528.00
2024-02-13T05:18:40.529Z,528.00
2024-02-13T05:19:40.485Z,529.00
2024-02-13T05:20:40.520Z,532.00
2024-02-13T05:21:40.541Z,534.00
2024-02-13T05:22:40.608Z,533.00
2024-02-13T05:23:40.680Z,534.00
2024-02-13T05:24:40.711Z,533.00
2024-02-13T05:25:40.781Z,533.00
2024-02-13T05:26:40.868Z,532.00
2024-02-13T05:27:40.921Z,531.00
2024-02-13T05:28:40.978Z,531.00
2024-02-13T05:29:41.110Z,530.00
2024-02-13T05:30:41.109Z,529.00
2024-02-13T05:31:41.166Z,529.00
2024-02-13T05:32:41.280Z,531.00
2024-02-13T05:33:41.390Z,532.00
2024-02-13T05:34:41.411Z,532.00
2024-02-13T05:35:41.442Z,533.00
2024-02-13T05:36:41.500Z,532.00
2024-02-13T05:37:41.565Z,532.00
2024-02-13T05:38:41.653Z,531.00
2024-02-13T05:39:41.720Z,532.00
2024-02-13T05:40:41.738Z,532.00
2024-02-13T05:41:41.891Z,532.00
2024-02-13T05:42:41.883Z,532.00
2024-02-13T05:43:42.048Z,535.00
2024-02-13T05:44:42.022Z,534.00
2024-02-13T05:45:42.076Z,534.00
2024-02-13T05:46:42.144Z,536.00
2024-02-13T05:47:42.282Z,536.00
2024-02-13T05:48:42.610Z,538.00
2024-02-13T05:49:42.378Z,538.00
2024-02-13T05:50:42.462Z,538.00
2024-02-13T05:51:42.465Z,537.00
2024-02-13T05:52:42.522Z,540.00
2024-02-13T05:53:42.672Z,545.00
2024-02-13T05:54:43.938Z,546.00
2024-02-13T05:55:42.736Z,547.00
2024-02-13T05:56:42.789Z,545.00
2024-02-13T05:57:42.889Z,543.00
2024-02-13T05:58:42.940Z,544.00
2024-02-13T05:59:43.025Z,542.00
2024-02-13T06:00:43.136Z,543.00
2024-02-13T06:01:43.164Z,542.00
2024-02-13T06:02:43.232Z,540.00
2024-02-13T06:03:43.402Z,542.00
2024-02-13T06:04:43.366Z,544.00
2024-02-13T06:05:43.591Z,544.00
2024-02-13T06:06:43.574Z,543.00
2024-02-13T06:07:43.504Z,546.00
2024-02-13T06:08:43.605Z,548.00
2024-02-13T06:09:43.754Z,548.00
2024-02-13T06:10:43.731Z,548.00
2024-02-13T06:11:43.863Z,548.00
2024-02-13T06:12:43.819Z,543.00
2024-02-13T06:13:43.881Z,543.00
2024-02-13T06:14:43.968Z,545.00
2024-02-13T06:15:43.986Z,546.00
2024-02-13T06:16:44.039Z,550.00
2024-02-13T06:17:44.168Z,552.00
2024-02-13T06:18:44.285Z,549.00
2024-02-13T06:19:44.289Z,548.00
2024-02-13T06:20:44.369Z,548.00
2024-02-13T06:21:44.348Z,548.00
2024-02-13T06:22:44.460Z,547.00
2024-02-13T06:23:44.494Z,548.00
2024-02-13T06:24:44.544Z,547.00
2024-02-13T06:25:44.610Z,548.00
2024-02-13T06:26:44.700Z,547.00
2024-02-13T06:27:44.694Z,549.00
2024-02-13T06:28:44.844Z,549.00
2024-02-13T06:29:44.905Z,548.00
2024-02-13T06:30:44.909Z,547.00
2024-02-13T06:31:44.979Z,548.00
2024-02-13T06:32:45.159Z,545.00
2024-02-13T06:33:45.309Z,548.00
2024-02-13T06:34:45.254Z,549.00
2024-02-13T06:35:45.248Z,547.00
2024-02-13T06:36:45.318Z,548.00
2024-02-13T06:37:45.399Z,549.00
2024-02-13T06:38:45.480Z,549.00
2024-02-13T06:39:45.492Z,549.00
2024-02-13T06:40:45.555Z,547.00
2024-02-13T06:41:45.660Z,547.00
2024-02-13T06:42:45.695Z,546.00
2024-02-13T06:43:45.750Z,544.00
2024-02-13T06:44:45.871Z,543.00
2024-02-13T06:45:45.898Z,542.00
2024-02-13T06:46:45.959Z,542.00
2024-02-13T06:47:46.083Z,541.00
2024-02-13T06:48:46.217Z,542.00
2024-02-13T06:49:46.254Z,540.00
2024-02-13T06:50:46.253Z,541.00
2024-02-13T06:51:46.291Z,543.00
2024-02-13T06:52:46.396Z,541.00
2024-02-13T06:53:46.480Z,543.00
2024-02-13T06:54:50.319Z,545.00
2024-02-13T06:55:46.487Z,545.00
2024-02-13T06:56:46.542Z,544.00
2024-02-13T06:57:46.483Z,543.00
2024-02-13T06:58:46.500Z,546.00
2024-02-13T06:59:46.541Z,544.00
2024-02-13T07:00:46.514Z,548.00
2024-02-13T07:01:46.506Z,548.00
2024-02-13T07:02:46.603Z,546.00
2024-02-13T07:03:46.552Z,546.00
2024-02-13T07:04:46.517Z,547.00
2024-02-13T07:05:46.632Z,548.00
2024-02-13T07:06:58.618Z,550.00
2024-02-13T07:07:48.642Z,550.00
2024-02-13T07:08:46.632Z,550.00
2024-02-13T07:09:46.739Z,547.00
2024-02-13T07:10:46.643Z,547.00
2024-02-13T07:11:46.795Z,548.00
2024-02-13T07:12:46.773Z,547.00
2024-02-13T07:13:46.829Z,546.00
2024-02-13T07:14:47.024Z,545.00
2024-02-13T07:15:47.095Z,544.00
2024-02-13T07:16:47.033Z,545.00
2024-02-13T07:17:55.900Z,544.00
2024-02-13T07:18:48.244Z,545.00
2024-02-13T07:19:47.334Z,545.00
2024-02-13T07:20:47.171Z,544.00
2024-02-13T07:21:47.126Z,545.00
2024-02-13T07:22:47.514Z,546.00
2024-02-13T07:23:47.158Z,549.00
2024-02-13T07:24:47.128Z,550.00
2024-02-13T07:25:47.117Z,552.00
2024-02-13T07:26:47.250Z,552.00
2024-02-13T07:27:47.198Z,551.00
2024-02-13T07:28:47.276Z,551.00
2024-02-13T07:29:47.389Z,551.00
2024-02-13T07:30:47.421Z,550.00
2024-02-13T07:31:47.474Z,547.00
2024-02-13T07:32:48.063Z,544.00
2024-02-13T07:33:47.731Z,543.00
2024-02-13T07:34:47.708Z,544.00
2024-02-13T07:35:47.879Z,544.00
2024-02-13T07:36:47.857Z,544.00
2024-02-13T07:37:47.888Z,544.00
2024-02-13T07:38:48.042Z,543.00
2024-02-13T07:39:48.024Z,542.00
2024-02-13T07:40:48.075Z,542.00
2024-02-13T07:41:48.249Z,541.00
2024-02-13T07:42:48.215Z,539.00
2024-02-13T07:43:48.414Z,540.00
2024-02-13T07:44:48.432Z,540.00
2024-02-13T07:45:48.412Z,543.00
2024-02-13T07:46:51.315Z,545.00
2024-02-13T07:47:48.645Z,545.00
2024-02-13T07:48:48.563Z,546.00
2024-02-13T07:49:48.520Z,545.00
2024-02-13T07:50:48.528Z,547.00
2024-02-13T07:51:48.500Z,551.00
2024-02-13T07:52:48.509Z,554.00
2024-02-13T07:53:48.559Z,553.00
2024-02-13T07:54:48.533Z,551.00
2024-02-13T07:55:48.503Z,552.00
2024-02-13T07:56:48.533Z,550.00
2024-02-13T07:57:48.505Z,549.00
2024-02-13T07:58:48.521Z,551.00
2024-02-13T07:59:48.584Z,549.00
2024-02-13T08:00:48.558Z,548.00
2024-02-13T08:01:48.530Z,549.00
2024-02-13T08:02:48.535Z,547.00
2024-02-13T08:03:48.589Z,545.00
2024-02-13T08:04:48.543Z,546.00
2024-02-13T08:05:48.665Z,547.00
2024-02-13T08:06:48.744Z,547.00
2024-02-13T08:07:48.528Z,548.00
2024-02-13T08:08:48.699Z,549.00
2024-02-13T08:09:48.530Z,547.00
2024-02-13T08:10:48.545Z,547.00
2024-02-13T08:11:48.576Z,548.00
2024-02-13T08:12:48.527Z,548.00
2024-02-13T08:13:48.525Z,551.00
2024-02-13T08:14:48.558Z,551.00
2024-02-13T08:15:48.558Z,551.00
2024-02-13T08:16:48.531Z,549.00
2024-02-13T08:17:48.618Z,549.00
2024-02-13T08:18:48.602Z,549.00
2024-02-13T08:19:48.603Z,548.00
2024-02-13T08:20:48.610Z,546.00
2024-02-13T08:21:48.560Z,547.00
2024-02-13T08:22:48.566Z,549.00
2024-02-13T08:23:48.562Z,549.00
2024-02-13T08:24:48.581Z,550.00
2024-02-13T08:25:48.632Z,551.00
2024-02-13T08:26:48.736Z,554.00
2024-02-13T08:27:48.720Z,556.00
2024-02-13T08:28:48.790Z,553.00
2024-02-13T08:29:48.898Z,552.00
2024-02-13T08:30:48.892Z,551.00
2024-02-13T08:31:48.953Z,547.00
2024-02-13T08:32:49.139Z,546.00
2024-02-13T08:33:49.433Z,546.00
2024-02-13T08:34:49.266Z,547.00
2024-02-13T08:35:49.291Z,548.00
2024-02-13T08:36:49.337Z,548.00
2024-02-13T08:37:49.302Z,550.00
2024-02-13T08:38:49.580Z,549.00
2024-02-13T08:39:49.486Z,551.00
2024-02-13T08:40:49.584Z,551.00
2024-02-13T08:41:49.795Z,550.00
2024-02-13T08:42:49.674Z,551.00
2024-02-13T08:43:49.669Z,550.00
2024-02-13T08:44:49.795Z,548.00
2024-02-13T08:45:49.790Z,547.00
2024-02-13T08:46:49.839Z,551.00
2024-02-13T08:47:50.037Z,552.00
2024-02-13T08:48:50.268Z,551.00
2024-02-13T08:49:50.127Z,551.00
2024-02-13T08:50:50.154Z,549.00
2024-02-13T08:51:50.319Z,549.00
2024-02-13T08:52:50.199Z,551.00
2024-02-13T08:53:50.295Z,550.00
2024-02-13T08:54:50.329Z,549.00
2024-02-13T08:55:50.396Z,549.00
2024-02-13T08:56:50.527Z,549.00
2024-02-13T08:57:50.512Z,551.00
2024-02-13T08:58:50.580Z,553.00
2024-02-13T08:59:51.216Z,553.00
2024-02-13T09:00:50.718Z,551.00
2024-02-13T09:01:50.720Z,549.00
2024-02-13T09:02:50.814Z,550.00
2024-02-13T09:03:50.842Z,549.00
2024-02-13T09:04:50.931Z,549.00
2024-02-13T09:05:51.007Z,550.00
2024-02-13T09:06:51.101Z,549.00
2024-02-13T09:07:51.055Z,550.00
2024-02-13T09:08:51.214Z,551.00
2024-02-13T09:09:51.198Z,551.00
2024-02-13T09:10:51.232Z,550.00
2024-02-13T09:11:51.300Z,552.00
2024-02-13T09:12:51.350Z,552.00
2024-02-13T09:13:51.376Z,552.00
2024-02-13T09:14:51.504Z,552.00
2024-02-13T09:15:51.509Z,552.00
2024-02-13T09:16:51.545Z,553.00
2024-02-13T09:17:51.688Z,552.00
2024-02-13T09:18:51.800Z,548.00
2024-02-13T09:19:51.798Z,548.00
2024-02-13T09:20:51.881Z,546.00
2024-02-13T09:21:51.834Z,545.00
2024-02-13T09:22:52.079Z,546.00
2024-02-13T09:23:52.005Z,549.00
2024-02-13T09:24:53.928Z,550.00
2024-02-13T09:25:52.029Z,552.00
2024-02-13T09:26:52.068Z,553.00
2024-02-13T09:27:52.003Z,556.00
2024-02-13T09:28:52.016Z,555.00
2024-02-13T09:29:52.071Z,554.00
2024-02-13T09:30:52.031Z,555.00
2024-02-13T09:31:52.162Z,553.00
2024-02-13T09:32:52.163Z,550.00
2024-02-13T09:33:52.103Z,548.00
2024-02-13T09:34:52.071Z,547.00
2024-02-13T09:35:52.288Z,547.00
2024-02-13T09:36:52.023Z,551.00
2024-02-13T09:37:52.061Z,551.00
2024-02-13T09:38:52.068Z,550.00
2024-02-13T09:39:52.032Z,549.00
2024-02-13T09:40:52.261Z,548.00
2024-02-13T09:41:52.079Z,547.00
2024-02-13T09:42:52.064Z,546.00
2024-02-13T09:43:52.164Z,546.00
2024-02-13T09:44:52.062Z,545.00
2024-02-13T09:45:52.036Z,545.00
2024-02-13T09:46:52.032Z,546.00
2024-02-13T09:47:52.119Z,544.00
2024-02-13T09:48:52.221Z,542.00
2024-02-13T09:49:52.068Z,545.00
2024-02-13T09:50:52.129Z,544.00
2024-02-13T09:51:52.075Z,545.00
2024-02-13T09:52:52.039Z,545.00
2024-02-13T09:53:52.150Z,545.00
2024-02-13T09:54:52.073Z,545.00
2024-02-13T09:55:52.093Z,544.00
2024-02-13T09:56:52.132Z,542.00
2024-02-13T09:57:52.060Z,544.00
2024-02-13T09:58:52.114Z,546.00
2024-02-13T09:59:52.118Z,550.00
2024-02-13T10:00:52.105Z,548.00
2024-02-13T10:01:52.095Z,546.00
2024-02-13T10:02:52.165Z,547.00
2024-02-13T10:03:52.075Z,546.00
2024-02-13T10:04:52.059Z,549.00
2024-02-13T10:05:52.926Z,549.00
2024-02-13T10:06:52.596Z,549.00
2024-02-13T10:07:52.056Z,551.00
2024-02-13T10:08:52.156Z,551.00
2024-02-13T10:09:52.074Z,552.00
2024-02-13T10:10:52.067Z,553.00
2024-02-13T10:11:52.121Z,556.00
2024-02-13T10:12:52.069Z,557.00
2024-02-13T10:13:52.117Z,554.00
2024-02-13T10:14:52.202Z,553.00
2024-02-13T10:15:52.210Z,553.00
2024-02-13T10:16:52.277Z,555.00
2024-02-13T10:17:52.558Z,553.00
2024-02-13T10:18:52.442Z,554.00
2024-02-13T10:19:52.473Z,553.00
2024-02-13T10:20:52.510Z,553.00
2024-02-13T10:21:52.476Z,554.00
2024-02-13T10:22:52.581Z,553.00
2024-02-13T10:23:52.623Z,552.00
2024-02-13T10:24:52.579Z,551.00
2024-02-13T10:25:52.649Z,550.00
2024-02-13T10:26:52.719Z,553.00
2024-02-13T10:27:52.708Z,551.00
2024-02-13T10:28:52.745Z,551.00
2024-02-13T10:29:53.183Z,554.00
2024-02-13T10:30:52.898Z,553.00
2024-02-13T10:31:52.861Z,553.00
2024-02-13T10:32:53.071Z,553.00
2024-02-13T10:33:52.981Z,553.00
2024-02-13T10:34:53.053Z,553.00
2024-02-13T10:35:53.153Z,553.00
2024-02-13T10:36:53.066Z,551.00
2024-02-13T10:37:53.119Z,550.00
2024-02-13T10:38:53.190Z,549.00
2024-02-13T10:39:53.190Z,548.00
2024-02-13T10:40:53.243Z,548.00
2024-02-13T10:41:53.321Z,547.00
2024-02-13T10:42:53.321Z,547.00
2024-02-13T10:43:53.368Z,547.00
2024-02-13T10:44:53.719Z,549.00
2024-02-13T10:45:53.425Z,552.00
2024-02-13T10:46:53.461Z,553.00
2024-02-13T10:47:53.584Z,552.00
2024-02-13T10:48:53.597Z,550.00
2024-02-13T10:49:53.646Z,547.00
2024-02-13T10:50:53.701Z,548.00
2024-02-13T10:51:53.658Z,547.00
2024-02-13T10:52:53.693Z,549.00
2024-02-13T10:53:53.804Z,550.00
2024-02-13T10:54:53.761Z,549.00
2024-02-13T10:55:53.816Z,550.00
2024-02-13T10:56:53.859Z,549.00
2024-02-13T10:57:53.907Z,549.00
2024-02-13T10:58:53.905Z,550.00
2024-02-13T10:59:54.005Z,548.00
2024-02-13T11:00:54.059Z,550.00
2024-02-13T11:01:54.098Z,551.00
2024-02-13T11:02:54.378Z,552.00
2024-02-13T11:03:54.139Z,552.00
2024-02-13T11:04:54.206Z,551.00
2024-02-13T11:05:54.376Z,550.00
2024-02-13T11:06:54.231Z,551.00
2024-02-13T11:07:54.266Z,553.00
2024-02-13T11:08:54.321Z,551.00
2024-02-13T11:09:54.319Z,553.00
2024-02-13T11:10:54.363Z,554.00
2024-02-13T11:11:54.513Z,552.00
2024-02-13T11:13:54.471Z,552.00
2024-02-13T11:14:54.526Z,553.00
2024-02-13T11:15:54.535Z,551.00
2024-02-13T11:16:54.566Z,552.00
2024-02-13T11:17:54.663Z,552.00
2024-02-13T11:18:54.851Z,551.00
2024-02-13T11:19:54.912Z,550.00
2024-02-13T11:20:54.773Z,552.00
2024-02-13T11:21:54.758Z,554.00
2024-02-13T11:22:54.775Z,556.00
2024-02-13T11:23:54.964Z,553.00
2024-02-13T11:24:54.955Z,552.00
2024-02-13T11:25:54.898Z,550.00
2024-02-13T11:26:54.989Z,551.00
2024-02-13T11:27:54.965Z,549.00
2024-02-13T11:28:55.001Z,551.00
2024-02-13T11:29:55.137Z,548.00
2024-02-13T11:30:55.056Z,548.00
2024-02-13T11:31:55.102Z,550.00
2024-02-13T11:32:55.209Z,551.00
2024-02-13T11:33:55.249Z,554.00
2024-02-13T11:34:55.397Z,556.00
2024-02-13T11:35:55.379Z,555.00
2024-02-13T11:36:55.283Z,554.00
2024-02-13T11:37:55.317Z,552.00
2024-02-13T11:38:55.443Z,552.00
2024-02-13T11:39:55.397Z,555.00
2024-02-13T11:40:55.431Z,554.00
2024-02-13T11:41:55.462Z,556.00
2024-02-13T11:42:55.494Z,557.00
2024-02-13T11:43:55.551Z,559.00
2024-02-13T11:44:55.610Z,560.00
2024-02-13T11:45:55.614Z,561.00
2024-02-13T11:46:55.725Z,560.00
2024-02-13T11:47:55.817Z,562.00
2024-02-13T11:48:55.883Z,562.00
2024-02-13T11:49:55.855Z,562.00
2024-02-13T11:50:55.868Z,562.00
2024-02-13T11:51:55.820Z,563.00
2024-02-13T11:52:55.860Z,560.00
2024-02-13T11:53:56.024Z,561.00
2024-02-13T11:54:56.073Z,559.00
2024-02-13T11:55:56.033Z,560.00
2024-02-13T11:56:56.108Z,559.00
2024-02-13T11:57:56.039Z,558.00
2024-02-13T11:58:56.071Z,558.00
2024-02-13T11:59:56.147Z,560.00
2024-02-13T12:00:56.155Z,564.00
2024-02-13T12:01:56.152Z,566.00
2024-02-13T12:02:56.599Z,567.00
2024-02-13T12:03:56.238Z,566.00
2024-02-13T12:04:56.228Z,567.00
2024-02-13T12:05:56.332Z,564.00
2024-02-13T12:06:56.282Z,564.00
2024-02-13T12:07:56.319Z,564.00
2024-02-13T12:08:56.431Z,563.00
2024-02-13T12:09:56.438Z,562.00
2024-02-13T12:10:56.458Z,562.00
2024-02-13T12:11:56.546Z,560.00
2024-02-13T12:12:56.480Z,557.00
2024-02-13T12:13:56.496Z,555.00
2024-02-13T12:14:56.523Z,554.00
2024-02-13T12:15:56.529Z,552.00
2024-02-13T12:16:56.545Z,554.00
2024-02-13T12:17:56.889Z,553.00
2024-02-13T12:18:56.734Z,552.00
2024-02-13T12:19:56.636Z,554.00
2024-02-13T12:20:56.738Z,555.00
2024-02-13T12:21:56.679Z,554.00
2024-02-13T12:22:56.710Z,555.00
2024-02-13T12:23:56.859Z,556.00
2024-02-13T12:24:56.789Z,557.00
2024-02-13T12:25:56.793Z,555.00
2024-02-13T12:26:56.852Z,552.00
2024-02-13T12:27:56.863Z,552.00
2024-02-13T12:28:56.923Z,551.00
2024-02-13T12:29:56.911Z,551.00